Time;durP1;ratioP1;P1;durP2;ratioP2;P2;SDS_P1;SDS_P2;PMS_P1;PMS_P2;Temp;Humidity;BMP_temperature;BMP_pressure;BME280_temperature;BME280_humidity;BME280_pressure;Samples;Min_cycle;Max_cycle;Signal;HPM_P1;HPM_P2
2022/04/08 00:01:09;;;;;;;4.20;3.27;;;;;;;;;;5054283;28;20221;-85
2022/04/08 00:03:37;;;;;;;7.20;3.03;;;;;;;;;;5054765;28;20581;-84
2022/04/08 00:06:04;;;;;;;4.97;3.27;;;;;;;;;;5054074;28;20202;-85
2022/04/08 00:08:32;;;;;;;3.90;3.13;;;;;;;;;;5053916;28;20208;-84
2022/04/08 00:11:00;;;;;;;5.53;3.10;;;;;;;;;;5053910;28;20296;-85
2022/04/08 00:13:27;;;;;;;3.27;2.20;;;;;;;;;;5053997;28;20261;-85
2022/04/08 00:15:54;;;;;;;4.67;3.43;;;;;;;;;;5053836;28;20194;-85
2022/04/08 00:18:21;;;;;;;3.27;2.37;;;;;;;;;;5054322;28;20727;-85
2022/04/08 00:20:49;;;;;;;2.83;2.50;;;;;;;;;;5053806;28;20201;-85
2022/04/08 00:23:16;;;;;;;2.77;2.40;;;;;;;;;;5054241;28;20197;-85
2022/04/08 00:25:44;;;;;;;3.87;2.80;;;;;;;;;;5053472;28;20260;-85
2022/04/08 00:28:12;;;;;;;2.93;2.57;;;;;;;;;;5054050;28;20202;-85
2022/04/08 00:30:39;;;;;;;6.23;2.87;;;;;;;;;;5053775;28;20208;-85
2022/04/08 00:33:06;;;;;;;6.53;2.70;;;;;;;;;;5053401;28;20781;-85
2022/04/08 00:35:33;;;;;;;2.70;2.50;;;;;;;;;;5053601;28;20240;-85
2022/04/08 00:38:01;;;;;;;2.93;2.63;;;;;;;;;;5053642;28;20194;-85
2022/04/08 00:40:28;;;;;;;3.47;2.70;;;;;;;;;;5053530;28;20740;-85
2022/04/08 00:42:57;;;;;;;5.13;2.90;;;;;;;;;;5053655;28;20225;-85
2022/04/08 00:45:24;;;;;;;2.83;2.43;;;;;;;;;;5053404;28;20200;-86
2022/04/08 00:47:51;;;;;;;3.20;2.73;;;;;;;;;;5053313;28;20682;-85
2022/04/08 00:50:19;;;;;;;3.37;3.10;;;;;;;;;;5053380;28;20204;-86
2022/04/08 00:52:47;;;;;;;3.20;2.83;;;;;;;;;;5053102;28;20279;-85
2022/04/08 00:55:14;;;;;;;3.30;2.47;;;;;;;;;;5053465;28;20194;-85
2022/04/08 00:57:42;;;;;;;4.13;2.93;;;;;;;;;;5053216;28;20205;-86
2022/04/08 01:00:12;;;;;;;4.27;2.87;;;;;;;;;;5053126;28;20204;-85
2022/04/08 01:02:39;;;;;;;4.60;2.80;;;;;;;;;;5053190;28;20194;-85
2022/04/08 01:05:08;;;;;;;4.40;2.57;;;;;;;;;;5052934;28;20202;-85
2022/04/08 01:07:35;;;;;;;3.70;2.83;;;;;;;;;;5053101;28;20197;-86
2022/04/08 01:10:02;;;;;;;3.10;2.80;;;;;;;;;;5053062;28;20216;-85
2022/04/08 01:12:29;;;;;;;6.80;3.03;;;;;;;;;;5053077;28;20296;-85
2022/04/08 01:15:00;;;;;;;5.80;2.60;;;;;;;;;;5053134;28;20202;-85
2022/04/08 01:17:29;;;;;;;3.10;2.77;;;;;;;;;;5052979;28;20198;-85
2022/04/08 01:19:56;;;;;;;2.97;2.77;;;;;;;;;;5052763;28;20288;-85
2022/04/08 01:22:24;;;;;;;3.00;2.70;;;;;;;;;;5052755;28;20312;-86
2022/04/08 01:25:00;;;;;;;3.47;3.10;;;;;;;;;;5052350;28;20226;-85
2022/04/08 01:27:28;;;;;;;5.73;2.93;;;;;;;;;;5053065;28;20190;-85
2022/04/08 01:29:55;;;;;;;3.77;2.67;;;;;;;;;;5052461;28;20646;-86
2022/04/08 01:32:22;;;;;;;3.10;2.80;;;;;;;;;;5052349;28;20627;-86
2022/04/08 01:34:50;;;;;;;8.00;3.13;;;;;;;;;;5052108;28;20781;-85
2022/04/08 01:37:17;;;;;;;4.67;4.27;;;;;;;;;;5052649;28;20280;-85
2022/04/08 01:39:44;;;;;;;6.07;3.87;;;;;;;;;;5052299;28;20696;-85
2022/04/08 01:42:13;;;;;;;3.60;3.30;;;;;;;;;;5052590;28;20225;-84
2022/04/08 01:44:42;;;;;;;3.77;3.13;;;;;;;;;;5052568;28;20640;-85
2022/04/08 01:47:09;;;;;;;2.83;2.63;;;;;;;;;;5051934;28;20696;-85
2022/04/08 01:49:36;;;;;;;3.10;2.77;;;;;;;;;;5052417;28;20194;-85
2022/04/08 01:52:03;;;;;;;3.47;3.07;;;;;;;;;;5052037;28;20202;-85
2022/04/08 01:54:31;;;;;;;3.50;3.20;;;;;;;;;;5052053;28;20221;-86
2022/04/08 01:56:58;;;;;;;3.90;2.97;;;;;;;;;;5052477;28;20614;-85
2022/04/08 01:59:26;;;;;;;3.93;3.20;;;;;;;;;;5052467;28;20237;-85
2022/04/08 02:01:54;;;;;;;3.40;3.10;;;;;;;;;;5051990;28;20208;-85
2022/04/08 02:04:21;;;;;;;4.57;3.83;;;;;;;;;;5052232;28;20296;-85
2022/04/08 02:06:48;;;;;;;7.00;3.70;;;;;;;;;;5051798;28;20212;-85
2022/04/08 02:09:16;;;;;;;3.90;3.20;;;;;;;;;;5052220;28;20251;-86
2022/04/08 02:11:43;;;;;;;4.53;3.33;;;;;;;;;;5052221;28;20737;-86
2022/04/08 02:14:10;;;;;;;5.67;3.17;;;;;;;;;;5051585;28;20246;-85
2022/04/08 02:16:39;;;;;;;3.97;3.57;;;;;;;;;;5051726;28;20292;-85
2022/04/08 02:19:06;;;;;;;4.17;3.33;;;;;;;;;;5051740;28;20193;-85
2022/04/08 02:21:34;;;;;;;3.20;2.90;;;;;;;;;;5051827;28;20237;-85
2022/04/08 02:24:03;;;;;;;4.63;3.37;;;;;;;;;;5049751;28;20304;-84
2022/04/08 02:26:30;;;;;;;5.57;3.00;;;;;;;;;;5052331;28;20541;-86
2022/04/08 02:28:57;;;;;;;3.63;3.33;;;;;;;;;;5051873;28;20642;-86
2022/04/08 02:31:25;;;;;;;5.13;3.30;;;;;;;;;;5051788;28;20193;-86
2022/04/08 02:33:53;;;;;;;5.10;3.40;;;;;;;;;;5051582;28;20268;-86
2022/04/08 02:36:20;;;;;;;5.50;3.80;;;;;;;;;;5051991;28;20198;-86
2022/04/08 02:38:48;;;;;;;5.77;3.60;;;;;;;;;;5051721;28;20229;-85
2022/04/08 02:41:15;;;;;;;6.87;3.17;;;;;;;;;;5051888;28;20202;-87
2022/04/08 02:43:42;;;;;;;7.43;3.37;;;;;;;;;;5052559;28;20289;-87
2022/04/08 02:46:09;;;;;;;3.00;2.80;;;;;;;;;;5055932;28;20208;-86
2022/04/08 02:48:36;;;;;;;3.53;2.77;;;;;;;;;;5056120;28;20740;-86
2022/04/08 02:51:05;;;;;;;4.27;2.80;;;;;;;;;;5055854;28;20712;-86
2022/04/08 02:53:33;;;;;;;6.30;3.47;;;;;;;;;;5055369;28;20233;-86
2022/04/08 02:56:00;;;;;;;3.77;2.57;;;;;;;;;;5055732;28;20198;-86
2022/04/08 02:58:28;;;;;;;3.80;3.20;;;;;;;;;;5055641;28;20194;-86
2022/04/08 03:00:57;;;;;;;3.40;3.03;;;;;;;;;;5055187;28;20241;-86
2022/04/08 03:03:26;;;;;;;4.37;2.93;;;;;;;;;;5055342;28;20197;-86
2022/04/08 03:05:53;;;;;;;3.20;2.90;;;;;;;;;;5055324;28;20697;-86
2022/04/08 03:08:22;;;;;;;3.40;3.10;;;;;;;;;;5055085;28;20202;-86
2022/04/08 03:10:49;;;;;;;5.40;3.40;;;;;;;;;;5055132;28;20200;-85
2022/04/08 03:13:16;;;;;;;3.43;3.10;;;;;;;;;;5055268;28;20267;-85
2022/04/08 03:15:44;;;;;;;3.63;3.33;;;;;;;;;;5055010;28;20190;-86
2022/04/08 03:18:11;;;;;;;7.77;3.77;;;;;;;;;;5055454;28;20270;-86
2022/04/08 03:20:38;;;;;;;4.47;3.40;;;;;;;;;;5055012;28;20208;-85
2022/04/08 03:23:06;;;;;;;4.40;3.00;;;;;;;;;;5054929;28;20295;-86
2022/04/08 03:25:34;;;;;;;6.37;3.27;;;;;;;;;;5054623;28;20225;-86
2022/04/08 03:28:01;;;;;;;5.47;3.53;;;;;;;;;;5055277;28;20201;-86
2022/04/08 03:30:31;;;;;;;4.33;3.03;;;;;;;;;;5054305;28;20205;-86
2022/04/08 03:32:59;;;;;;;3.27;2.90;;;;;;;;;;5054754;28;20315;-86
2022/04/08 03:35:26;;;;;;;57.97;37.20;;;;;;;;;;5055301;28;20255;-86
2022/04/08 03:37:53;;;;;;;44.93;30.23;;;;;;;;;;5055212;28;20630;-86
2022/04/08 03:40:21;;;;;;;8.53;6.77;;;;;;;;;;5054543;28;20198;-86
2022/04/08 03:42:49;;;;;;;3.83;3.00;;;;;;;;;;5055023;28;20235;-86
2022/04/08 03:45:17;;;;;;;4.77;4.17;;;;;;;;;;5054638;28;20204;-86
2022/04/08 03:47:44;;;;;;;3.50;3.20;;;;;;;;;;5054708;28;20221;-85
2022/04/08 03:50:11;;;;;;;5.20;3.67;;;;;;;;;;5054352;28;20198;-85
2022/04/08 03:52:38;;;;;;;4.30;3.13;;;;;;;;;;5054433;28;20225;-85
2022/04/08 03:55:07;;;;;;;2.73;2.50;;;;;;;;;;5053906;28;20228;-86
2022/04/08 03:57:34;;;;;;;3.03;2.80;;;;;;;;;;5054541;28;20194;-86
2022/04/08 04:00:04;;;;;;;4.60;3.30;;;;;;;;;;5054440;28;20233;-86
2022/04/08 04:02:32;;;;;;;5.90;3.60;;;;;;;;;;5054426;28;20189;-86
2022/04/08 04:05:00;;;;;;;13.93;12.57;;;;;;;;;;5054217;28;20636;-86
2022/04/08 04:07:28;;;;;;;13.77;12.23;;;;;;;;;;5054438;28;20221;-78
2022/04/08 04:09:55;;;;;;;10.57;9.53;;;;;;;;;;5054031;28;20670;-86
2022/04/08 04:12:23;;;;;;;9.83;8.67;;;;;;;;;;5052983;28;20202;-84
2022/04/08 04:14:50;;;;;;;7.20;5.90;;;;;;;;;;5053443;28;20221;-84
2022/04/08 04:17:19;;;;;;;5.93;4.60;;;;;;;;;;5053889;28;20197;-85
2022/04/08 04:19:46;;;;;;;4.23;3.80;;;;;;;;;;5053916;28;20201;-85
2022/04/08 04:22:13;;;;;;;5.20;4.00;;;;;;;;;;5053826;28;20213;-85
2022/04/08 04:24:40;;;;;;;4.87;4.37;;;;;;;;;;5053510;28;20308;-85
2022/04/08 04:27:08;;;;;;;5.57;3.53;;;;;;;;;;5053896;28;20726;-85
2022/04/08 04:29:35;;;;;;;6.37;3.93;;;;;;;;;;5053569;28;20190;-85
2022/04/08 04:32:03;;;;;;;3.33;3.03;;;;;;;;;;5053666;28;20228;-86
2022/04/08 04:34:32;;;;;;;5.27;2.90;;;;;;;;;;5053857;28;20614;-86
2022/04/08 04:37:00;;;;;;;3.53;2.93;;;;;;;;;;5053875;28;20198;-85
2022/04/08 04:39:27;;;;;;;3.47;3.00;;;;;;;;;;5053378;28;20220;-85
2022/04/08 04:41:54;;;;;;;34.23;18.20;;;;;;;;;;5053597;28;20566;-85
2022/04/08 04:44:21;;;;;;;266.60;116.67;;;;;;;;;;5053447;28;20285;-85
2022/04/08 04:46:48;;;;;;;202.20;86.63;;;;;;;;;;5053233;28;20198;-86
2022/04/08 04:49:16;;;;;;;37.77;19.10;;;;;;;;;;5052722;28;20833;-85
2022/04/08 04:51:44;;;;;;;7.10;4.67;;;;;;;;;;5053028;28;20694;-85
2022/04/08 04:54:11;;;;;;;41.67;20.17;;;;;;;;;;5053259;28;20232;-85
2022/04/08 04:56:39;;;;;;;12.97;7.37;;;;;;;;;;5053174;28;20197;-86
2022/04/08 04:59:06;;;;;;;8.97;5.60;;;;;;;;;;5053779;28;20198;-85
2022/04/08 05:01:33;;;;;;;4.63;4.03;;;;;;;;;;5053441;28;20229;-84
2022/04/08 05:04:00;;;;;;;5.90;5.17;;;;;;;;;;5053248;28;20207;-84
2022/04/08 05:06:27;;;;;;;4.17;3.80;;;;;;;;;;5052107;28;20202;-85
2022/04/08 05:08:56;;;;;;;5.07;4.63;;;;;;;;;;5052838;28;20209;-85
2022/04/08 05:11:23;;;;;;;5.77;4.20;;;;;;;;;;5052948;28;20194;-85
2022/04/08 05:13:50;;;;;;;181.80;112.03;;;;;;;;;;5052777;28;20305;-84
2022/04/08 05:16:17;;;;;;;75.60;46.73;;;;;;;;;;5053174;28;20202;-84
2022/04/08 05:18:45;;;;;;;9.93;8.13;;;;;;;;;;5052925;28;20201;-85
2022/04/08 05:21:12;;;;;;;5.47;4.70;;;;;;;;;;5052876;28;20200;-86
2022/04/08 05:23:39;;;;;;;8.03;6.17;;;;;;;;;;5052691;28;20213;-86
2022/04/08 05:26:08;;;;;;;6.70;4.93;;;;;;;;;;5053124;28;20193;-85
2022/04/08 05:28:35;;;;;;;7.53;6.83;;;;;;;;;;5045116;28;20201;-85
2022/04/08 05:31:02;;;;;;;7.00;5.33;;;;;;;;;;5044528;28;20233;-85
2022/04/08 05:33:30;;;;;;;5.07;4.67;;;;;;;;;;5032694;28;20234;-85
2022/04/08 05:35:57;;;;;;;7.90;5.80;;;;;;;;;;5032492;28;20237;-85
2022/04/08 05:38:24;;;;;;;4.87;4.43;;;;;;;;;;5041860;28;20295;-84
2022/04/08 05:40:51;;;;;;;4.40;4.10;;;;;;;;;;5049752;28;20216;-84
2022/04/08 05:43:20;;;;;;;4.30;3.90;;;;;;;;;;5052353;28;20223;-84
2022/04/08 05:45:47;;;;;;;4.17;3.77;;;;;;;;;;5051676;28;20206;-84
2022/04/08 05:48:14;;;;;;;7.27;3.63;;;;;;;;;;5051064;28;20209;-84
2022/04/08 05:50:42;;;;;;;4.47;3.53;;;;;;;;;;5049651;28;20301;-84
2022/04/08 05:53:09;;;;;;;5.30;4.87;;;;;;;;;;5047643;28;20205;-84
2022/04/08 05:55:36;;;;;;;4.13;3.73;;;;;;;;;;5051938;28;20226;-84
2022/04/08 05:58:03;;;;;;;4.20;3.80;;;;;;;;;;5052535;28;20632;-84
2022/04/08 06:00:34;;;;;;;5.37;3.90;;;;;;;;;;5052041;28;20273;-85
2022/04/08 06:03:01;;;;;;;4.67;4.27;;;;;;;;;;5040957;28;20300;-84
2022/04/08 06:05:28;;;;;;;4.13;3.53;;;;;;;;;;5051032;28;20211;-84
2022/04/08 06:07:55;;;;;;;3.90;2.97;;;;;;;;;;5051079;28;20259;-84
2022/04/08 06:10:24;;;;;;;3.20;2.87;;;;;;;;;;5052224;28;20201;-84
2022/04/08 06:12:51;;;;;;;3.10;2.77;;;;;;;;;;5051961;28;20667;-84
2022/04/08 06:15:19;;;;;;;3.20;2.93;;;;;;;;;;5051625;28;20224;-84
2022/04/08 06:17:48;;;;;;;10.13;7.87;;;;;;;;;;5051387;28;20206;-84
2022/04/08 06:20:17;;;;;;;2.20;2.10;;;;;;;;;;5051655;28;20201;-84
2022/04/08 06:22:45;;;;;;;3.50;2.40;;;;;;;;;;5051720;28;20624;-84
2022/04/08 06:25:14;;;;;;;4.27;2.43;;;;;;;;;;5065988;28;20226;-84
2022/04/08 06:27:41;;;;;;;2.60;2.40;;;;;;;;;;5071760;28;20283;-84
2022/04/08 06:30:10;;;;;;;2.67;2.47;;;;;;;;;;5071416;28;20212;-84
2022/04/08 06:32:38;;;;;;;2.70;2.50;;;;;;;;;;5071790;28;20671;-84
2022/04/08 06:35:08;;;;;;;5.50;2.43;;;;;;;;;;5071562;28;20230;-84
2022/04/08 06:37:35;;;;;;;3.13;2.83;;;;;;;;;;5071661;28;20641;-84
2022/04/08 06:40:07;;;;;;;2.60;2.40;;;;;;;;;;5071713;28;20687;-84
2022/04/08 06:42:34;;;;;;;3.13;2.73;;;;;;;;;;5071878;28;20196;-85
2022/04/08 06:45:01;;;;;;;6.60;6.00;;;;;;;;;;5072072;28;20201;-84
2022/04/08 06:47:28;;;;;;;5.27;2.97;;;;;;;;;;5071566;28;20201;-85
2022/04/08 06:49:56;;;;;;;2.80;2.47;;;;;;;;;;5071559;28;20194;-85
2022/04/08 06:52:24;;;;;;;5.60;2.57;;;;;;;;;;5071660;28;20217;-83
2022/04/08 06:54:52;;;;;;;5.50;4.70;;;;;;;;;;5052685;28;20221;-84
2022/04/08 06:57:19;;;;;;;4.40;4.07;;;;;;;;;;5051518;28;20289;-83
2022/04/08 06:59:46;;;;;;;2.87;2.57;;;;;;;;;;5051411;28;20198;-83
2022/04/08 07:02:13;;;;;;;2.57;2.37;;;;;;;;;;5046292;28;20296;-82
2022/04/08 07:04:40;;;;;;;3.00;2.70;;;;;;;;;;5051158;28;20198;-83
2022/04/08 07:07:08;;;;;;;4.23;2.77;;;;;;;;;;5051687;28;20602;-83
2022/04/08 07:09:36;;;;;;;4.40;3.17;;;;;;;;;;5051301;28;20211;-83
2022/04/08 07:12:04;;;;;;;2.47;2.27;;;;;;;;;;5051296;28;20198;-83
2022/04/08 07:14:31;;;;;;;3.53;2.50;;;;;;;;;;5051126;28;20226;-83
2022/04/08 07:16:58;;;;;;;3.27;2.40;;;;;;;;;;5051056;28;20202;-83
2022/04/08 07:19:25;;;;;;;2.83;2.13;;;;;;;;;;5051434;28;20571;-83
2022/04/08 07:21:52;;;;;;;2.73;2.30;;;;;;;;;;5051240;28;20697;-83
2022/04/08 07:24:20;;;;;;;2.53;2.33;;;;;;;;;;5050705;28;20739;-83
2022/04/08 07:26:48;;;;;;;3.47;2.47;;;;;;;;;;5051291;28;20235;-84
2022/04/08 07:29:15;;;;;;;3.23;2.37;;;;;;;;;;5051094;28;20222;-83
2022/04/08 07:31:43;;;;;;;2.73;2.50;;;;;;;;;;5046664;28;20202;-83
2022/04/08 07:34:10;;;;;;;3.50;3.30;;;;;;;;;;5054609;28;20288;-83
2022/04/08 07:36:38;;;;;;;2.73;2.00;;;;;;;;;;5055083;28;20638;-84
2022/04/08 07:39:05;;;;;;;2.47;2.20;;;;;;;;;;5054816;28;20203;-83
2022/04/08 07:41:33;;;;;;;5.57;1.93;;;;;;;;;;5054547;28;20684;-84
2022/04/08 07:44:01;;;;;;;2.03;1.93;;;;;;;;;;5054731;28;20200;-84
2022/04/08 07:46:29;;;;;;;6.33;5.73;;;;;;;;;;5054664;28;20231;-83
2022/04/08 07:48:56;;;;;;;2.87;2.67;;;;;;;;;;5054815;28;20216;-83
2022/04/08 07:51:23;;;;;;;1.67;1.53;;;;;;;;;;5054771;28;20204;-84
2022/04/08 07:53:50;;;;;;;4.70;2.10;;;;;;;;;;5054601;28;20197;-83
2022/04/08 07:56:17;;;;;;;2.93;1.70;;;;;;;;;;5054383;28;20229;-84
2022/04/08 07:58:47;;;;;;;2.40;1.60;;;;;;;;;;5054186;28;20197;-84
2022/04/08 08:01:16;;;;;;;6.60;3.13;;;;;;;;;;5053971;28;20287;-84
2022/04/08 08:03:45;;;;;;;6.30;3.30;;;;;;;;;;5043466;28;20214;-84
2022/04/08 08:06:12;;;;;;;2.90;2.60;;;;;;;;;;5034694;28;20198;-84
2022/04/08 08:08:39;;;;;;;2.83;2.33;;;;;;;;;;5034396;28;20209;-83
2022/04/08 08:11:11;;;;;;;5.60;3.47;;;;;;;;;;5034399;28;20199;-84
2022/04/08 08:13:39;;;;;;;4.80;3.97;;;;;;;;;;5034565;28;20250;-84
2022/04/08 08:16:07;;;;;;;4.53;4.10;;;;;;;;;;5034312;28;20284;-84
2022/04/08 08:18:36;;;;;;;3.87;2.23;;;;;;;;;;5034634;28;20194;-84
2022/04/08 08:21:03;;;;;;;4.67;2.33;;;;;;;;;;5034415;28;20199;-84
2022/04/08 08:23:30;;;;;;;6.07;3.20;;;;;;;;;;5034159;28;20206;-83
2022/04/08 08:25:57;;;;;;;2.07;1.90;;;;;;;;;;5033851;28;20191;-83
2022/04/08 08:28:25;;;;;;;3.33;2.07;;;;;;;;;;5034229;28;20195;-85
2022/04/08 08:30:52;;;;;;;2.27;1.80;;;;;;;;;;5034154;28;20205;-85
2022/04/08 08:33:19;;;;;;;2.47;2.27;;;;;;;;;;5033897;28;20729;-85
2022/04/08 08:35:48;;;;;;;2.97;2.00;;;;;;;;;;5033666;28;20226;-84
2022/04/08 08:38:15;;;;;;;2.93;2.73;;;;;;;;;;5033653;28;20205;-85
2022/04/08 08:40:45;;;;;;;3.93;2.30;;;;;;;;;;5033187;28;20206;-84
2022/04/08 08:43:17;;;;;;;2.20;1.90;;;;;;;;;;5033258;28;20194;-85
2022/04/08 08:45:45;;;;;;;6.90;2.43;;;;;;;;;;5033969;28;20199;-85
2022/04/08 08:48:14;;;;;;;1.90;1.80;;;;;;;;;;5033582;28;20671;-85
2022/04/08 08:50:48;;;;;;;3.40;3.20;;;;;;;;;;5033666;28;20199;-85
2022/04/08 08:53:18;;;;;;;2.23;2.03;;;;;;;;;;5033869;28;20187;-84
2022/04/08 08:55:46;;;;;;;1.80;1.70;;;;;;;;;;5033361;28;20207;-85
2022/04/08 08:58:13;;;;;;;2.97;2.03;;;;;;;;;;5033715;28;20205;-85
2022/04/08 09:00:41;;;;;;;2.23;1.57;;;;;;;;;;5033707;28;20198;-86
2022/04/08 09:03:09;;;;;;;2.57;1.53;;;;;;;;;;5051997;28;20217;-85
2022/04/08 09:05:52;;;;;;;1.63;1.53;;;;;;;;;;5053311;28;20236;-85
2022/04/08 09:08:19;;;;;;;1.60;1.50;;;;;;;;;;5052975;28;20240;-85
2022/04/08 09:10:48;;;;;;;1.90;1.60;;;;;;;;;;5053348;28;20336;-85
2022/04/08 09:13:19;;;;;;;3.00;1.60;;;;;;;;;;5053369;28;20678;-85
2022/04/08 09:15:53;;;;;;;5.20;1.90;;;;;;;;;;5052968;28;20256;-86
2022/04/08 09:18:20;;;;;;;1.67;1.57;;;;;;;;;;5052760;28;20182;-86
2022/04/08 09:20:50;;;;;;;1.97;1.57;;;;;;;;;;5052780;28;20279;-85
2022/04/08 09:23:19;;;;;;;2.00;1.70;;;;;;;;;;5052759;28;20201;-85
2022/04/08 09:25:47;;;;;;;2.83;2.00;;;;;;;;;;5052560;28;20233;-85
2022/04/08 09:28:16;;;;;;;2.87;1.77;;;;;;;;;;5052910;28;20198;-85
2022/04/08 09:30:49;;;;;;;1.87;1.77;;;;;;;;;;5045012;28;20702;-85
2022/04/08 09:33:18;;;;;;;1.60;1.50;;;;;;;;;;5052965;28;20200;-85
2022/04/08 09:35:46;;;;;;;1.50;1.40;;;;;;;;;;5052580;28;20226;-86
2022/04/08 09:38:19;;;;;;;1.60;1.50;;;;;;;;;;5052630;28;20201;-86
2022/04/08 09:40:47;;;;;;;3.03;2.07;;;;;;;;;;5052751;28;20182;-85
2022/04/08 09:43:15;;;;;;;3.13;1.60;;;;;;;;;;5052895;28;20272;-86
2022/04/08 09:45:42;;;;;;;1.90;1.80;;;;;;;;;;5052399;28;20194;-85
2022/04/08 09:48:10;;;;;;;3.40;1.90;;;;;;;;;;5052397;28;20277;-85
2022/04/08 09:50:39;;;;;;;2.20;2.00;;;;;;;;;;5051976;28;20692;-85
2022/04/08 09:53:07;;;;;;;2.70;1.57;;;;;;;;;;5031985;28;20210;-86
2022/04/08 09:55:36;;;;;;;1.70;1.60;;;;;;;;;;5032493;28;20218;-85
2022/04/08 09:58:05;;;;;;;1.70;1.60;;;;;;;;;;5032403;28;20198;-85
2022/04/08 10:00:33;;;;;;;1.80;1.70;;;;;;;;;;5032172;28;20283;-86
2022/04/08 10:03:00;;;;;;;3.47;1.90;;;;;;;;;;5048310;28;20213;-85
2022/04/08 10:05:28;;;;;;;1.83;1.70;;;;;;;;;;5052382;28;20626;-86
2022/04/08 10:07:56;;;;;;;3.10;2.10;;;;;;;;;;5052003;28;20197;-85
2022/04/08 10:10:27;;;;;;;2.13;2.00;;;;;;;;;;5052213;28;20221;-85
2022/04/08 10:13:31;;;;;;;2.27;2.00;;;;;;;;;;5052044;28;20667;-85
2022/04/08 10:16:14;;;;;;;2.43;1.53;;;;;;;;;;5052271;28;20225;-85
2022/04/08 10:18:43;;;;;;;2.40;1.77;;;;;;;;;;5051659;28;20201;-86
2022/04/08 10:21:10;;;;;;;2.07;1.97;;;;;;;;;;5051949;28;20241;-85
2022/04/08 10:23:39;;;;;;;6.43;1.97;;;;;;;;;;5051865;28;20231;-85
2022/04/08 10:26:08;;;;;;;1.93;1.60;;;;;;;;;;5052025;28;20186;-85
2022/04/08 10:28:37;;;;;;;1.53;1.40;;;;;;;;;;5051959;28;20581;-85
2022/04/08 10:31:15;;;;;;;1.60;1.50;;;;;;;;;;5052097;28;20202;-85
2022/04/08 10:33:51;;;;;;;2.43;2.23;;;;;;;;;;5051629;28;20190;-86
2022/04/08 10:36:18;;;;;;;3.33;1.90;;;;;;;;;;5051674;28;20208;-86
2022/04/08 10:38:46;;;;;;;2.70;1.70;;;;;;;;;;5051615;28;20205;-85
2022/04/08 10:41:13;;;;;;;3.10;1.70;;;;;;;;;;5051807;28;20205;-84
2022/04/08 10:43:46;;;;;;;2.33;1.83;;;;;;;;;;5051620;28;20251;-84
2022/04/08 10:46:13;;;;;;;2.17;1.67;;;;;;;;;;5051575;28;20198;-85
2022/04/08 10:48:41;;;;;;;3.07;1.70;;;;;;;;;;5051537;28;20194;-84
2022/04/08 10:51:11;;;;;;;1.80;1.70;;;;;;;;;;5051661;28;20292;-83
2022/04/08 10:53:41;;;;;;;2.33;2.13;;;;;;;;;;5052091;28;20580;-85
2022/04/08 10:56:12;;;;;;;2.03;1.73;;;;;;;;;;5051492;28;20706;-84
2022/04/08 10:58:43;;;;;;;2.13;2.00;;;;;;;;;;5051555;28;20201;-84
2022/04/08 11:01:17;;;;;;;2.10;2.00;;;;;;;;;;5050517;28;20266;-85
2022/04/08 11:03:46;;;;;;;2.80;2.00;;;;;;;;;;5035337;28;20610;-85
2022/04/08 11:06:14;;;;;;;1.83;1.73;;;;;;;;;;5034913;28;20575;-85
2022/04/08 11:08:43;;;;;;;2.77;1.80;;;;;;;;;;5035564;28;20256;-85
2022/04/08 11:11:10;;;;;;;2.50;2.37;;;;;;;;;;5035487;28;20202;-85
2022/04/08 11:13:41;;;;;;;3.30;2.60;;;;;;;;;;5035306;28;20203;-85
2022/04/08 11:16:08;;;;;;;4.03;2.50;;;;;;;;;;5035224;28;20203;-84
2022/04/08 11:18:37;;;;;;;6.03;5.53;;;;;;;;;;5035331;28;20234;-85
2022/04/08 11:21:05;;;;;;;3.63;3.13;;;;;;;;;;5035707;28;20198;-84
2022/04/08 11:23:34;;;;;;;2.00;1.90;;;;;;;;;;5035473;28;20318;-84
2022/04/08 11:26:01;;;;;;;2.10;2.00;;;;;;;;;;5035257;28;20191;-84
2022/04/08 11:28:28;;;;;;;3.47;3.03;;;;;;;;;;5035200;28;20253;-84
2022/04/08 11:30:56;;;;;;;2.90;2.37;;;;;;;;;;5035004;28;20682;-84
2022/04/08 11:33:23;;;;;;;3.10;2.13;;;;;;;;;;5035360;28;20210;-84
2022/04/08 11:35:58;;;;;;;2.37;2.17;;;;;;;;;;5035025;28;20300;-84
2022/04/08 11:38:26;;;;;;;2.70;2.33;;;;;;;;;;5035164;28;20195;-85
2022/04/08 11:40:53;;;;;;;3.33;2.00;;;;;;;;;;5034803;28;20194;-84
2022/04/08 11:43:22;;;;;;;4.13;2.77;;;;;;;;;;5034868;28;20207;-85
2022/04/08 11:45:51;;;;;;;4.43;3.10;;;;;;;;;;5034646;28;20202;-85
2022/04/08 11:48:20;;;;;;;2.37;2.17;;;;;;;;;;5034713;28;20195;-85
2022/04/08 11:50:48;;;;;;;1.83;1.73;;;;;;;;;;5034601;28;20672;-85
2022/04/08 11:53:18;;;;;;;2.40;2.20;;;;;;;;;;5035186;28;20203;-84
2022/04/08 11:55:56;;;;;;;2.37;2.10;;;;;;;;;;5034410;28;20183;-85
2022/04/08 11:58:24;;;;;;;1.80;1.70;;;;;;;;;;5034669;28;20257;-85
2022/04/08 12:00:52;;;;;;;3.00;1.87;;;;;;;;;;5034735;28;20209;-85
2022/04/08 12:03:23;;;;;;;6.27;2.00;;;;;;;;;;5046893;28;20201;-85
2022/04/08 12:05:51;;;;;;;1.97;1.87;;;;;;;;;;5054088;28;20192;-84
2022/04/08 12:08:20;;;;;;;1.97;1.77;;;;;;;;;;5054419;28;20583;-85
2022/04/08 12:10:52;;;;;;;3.23;1.77;;;;;;;;;;5054204;28;20202;-85
2022/04/08 12:13:21;;;;;;;3.80;2.07;;;;;;;;;;5054564;28;20639;-86
2022/04/08 12:15:50;;;;;;;2.30;2.20;;;;;;;;;;5053596;28;20252;-86
2022/04/08 12:18:21;;;;;;;2.90;1.90;;;;;;;;;;5053951;28;20244;-86
2022/04/08 12:20:53;;;;;;;2.87;1.90;;;;;;;;;;5053962;28;20189;-85
2022/04/08 12:23:23;;;;;;;2.00;1.80;;;;;;;;;;5054386;28;20537;-85
2022/04/08 12:25:53;;;;;;;2.33;1.90;;;;;;;;;;5053702;28;20240;-85
2022/04/08 12:28:23;;;;;;;2.20;2.00;;;;;;;;;;5053996;28;20623;-85
2022/04/08 12:30:50;;;;;;;7.37;4.83;;;;;;;;;;5053723;28;20190;-85
2022/04/08 12:33:18;;;;;;;5.57;3.27;;;;;;;;;;5053843;28;20678;-85
2022/04/08 12:35:46;;;;;;;5.40;3.67;;;;;;;;;;5045867;28;20260;-86
2022/04/08 12:38:14;;;;;;;2.30;2.10;;;;;;;;;;5053729;28;20296;-86
2022/04/08 12:40:43;;;;;;;2.83;2.00;;;;;;;;;;5053376;28;20193;-85
2022/04/08 12:43:10;;;;;;;3.87;2.33;;;;;;;;;;5053869;28;20205;-85
2022/04/08 12:45:37;;;;;;;5.20;2.03;;;;;;;;;;5053279;28;20198;-85
2022/04/08 12:48:06;;;;;;;2.00;1.90;;;;;;;;;;5053560;28;20285;-85
2022/04/08 12:50:33;;;;;;;2.00;1.90;;;;;;;;;;5053489;28;20194;-86
2022/04/08 12:53:01;;;;;;;4.73;2.00;;;;;;;;;;5053668;28;20202;-85
2022/04/08 12:55:28;;;;;;;2.20;2.00;;;;;;;;;;5053242;28;20693;-85
2022/04/08 12:57:57;;;;;;;1.90;1.80;;;;;;;;;;5053201;28;20217;-85
2022/04/08 13:00:24;;;;;;;2.43;1.90;;;;;;;;;;5053373;28;20556;-86
2022/04/08 13:02:53;;;;;;;1.80;1.70;;;;;;;;;;5051578;28;20276;-85
2022/04/08 13:05:20;;;;;;;1.90;1.80;;;;;;;;;;5033890;28;20276;-86
2022/04/08 13:07:47;;;;;;;3.23;1.73;;;;;;;;;;5033425;28;20581;-85
2022/04/08 13:10:14;;;;;;;2.30;1.90;;;;;;;;;;5033098;28;20285;-85
2022/04/08 13:12:41;;;;;;;4.20;2.17;;;;;;;;;;5033243;28;20202;-85
2022/04/08 13:15:11;;;;;;;3.47;2.10;;;;;;;;;;5033063;28;20205;-85
2022/04/08 13:17:39;;;;;;;2.10;2.00;;;;;;;;;;5032947;28;20222;-85
2022/04/08 13:20:07;;;;;;;4.40;2.70;;;;;;;;;;5032839;28;20782;-86
2022/04/08 13:22:35;;;;;;;3.90;2.07;;;;;;;;;;5033211;28;20203;-85
2022/04/08 13:25:02;;;;;;;1.87;1.77;;;;;;;;;;5033022;28;20236;-85
2022/04/08 13:27:29;;;;;;;3.37;2.00;;;;;;;;;;5032207;28;20195;-85
2022/04/08 13:29:56;;;;;;;1.90;1.80;;;;;;;;;;5032911;28;20260;-85
2022/04/08 13:32:25;;;;;;;3.20;1.87;;;;;;;;;;5033001;28;20217;-85
2022/04/08 13:34:52;;;;;;;2.53;2.03;;;;;;;;;;5032716;28;20203;-85
2022/04/08 13:37:19;;;;;;;2.73;1.83;;;;;;;;;;5032669;28;20218;-85
2022/04/08 13:39:46;;;;;;;5.47;2.07;;;;;;;;;;5032358;28;20209;-85
2022/04/08 13:42:13;;;;;;;2.30;1.73;;;;;;;;;;5032746;28;20199;-85
2022/04/08 13:44:41;;;;;;;2.70;1.90;;;;;;;;;;5033254;28;20205;-85
2022/04/08 13:47:08;;;;;;;2.03;1.93;;;;;;;;;;5032619;28;20191;-86
2022/04/08 13:49:36;;;;;;;1.80;1.63;;;;;;;;;;5032548;28;20199;-86
2022/04/08 13:52:04;;;;;;;3.53;2.00;;;;;;;;;;5032515;28;20199;-85
2022/04/08 13:54:31;;;;;;;2.10;2.00;;;;;;;;;;5032208;28;20199;-85
2022/04/08 13:56:58;;;;;;;3.33;1.80;;;;;;;;;;5032278;28;20222;-85
2022/04/08 13:59:26;;;;;;;4.47;2.43;;;;;;;;;;5032051;28;20205;-85
2022/04/08 14:01:53;;;;;;;2.30;2.10;;;;;;;;;;5037620;28;20206;-85
2022/04/08 14:04:20;;;;;;;2.13;1.97;;;;;;;;;;5040438;28;20591;-86
2022/04/08 14:06:49;;;;;;;1.87;1.77;;;;;;;;;;5032428;28;20278;-85
2022/04/08 14:09:16;;;;;;;2.53;2.33;;;;;;;;;;5032066;28;20191;-85
2022/04/08 14:11:44;;;;;;;2.30;2.10;;;;;;;;;;5032231;28;20209;-85
2022/04/08 14:14:12;;;;;;;4.40;2.40;;;;;;;;;;5032241;28;20686;-85
2022/04/08 14:16:39;;;;;;;1.97;1.87;;;;;;;;;;5031995;28;20226;-85
2022/04/08 14:19:06;;;;;;;2.03;1.83;;;;;;;;;;5047535;28;20241;-85
2022/04/08 14:21:33;;;;;;;3.57;2.20;;;;;;;;;;5038279;28;20293;-85
2022/04/08 14:24:02;;;;;;;2.27;2.07;;;;;;;;;;5051485;28;20610;-84
2022/04/08 14:26:29;;;;;;;3.00;2.23;;;;;;;;;;5051878;28;20284;-85
2022/04/08 14:28:57;;;;;;;1.90;1.80;;;;;;;;;;5052014;28;20288;-85
2022/04/08 14:31:24;;;;;;;2.87;1.80;;;;;;;;;;5052280;28;20202;-85
2022/04/08 14:33:51;;;;;;;2.23;1.80;;;;;;;;;;5049678;28;20666;-85
2022/04/08 14:36:18;;;;;;;3.07;1.80;;;;;;;;;;5031941;28;20209;-85
2022/04/08 14:38:45;;;;;;;1.83;1.70;;;;;;;;;;5048894;28;20205;-85
2022/04/08 14:41:15;;;;;;;3.93;2.13;;;;;;;;;;5055834;28;20288;-85
2022/04/08 14:43:43;;;;;;;2.70;1.87;;;;;;;;;;5055737;28;20491;-85
2022/04/08 14:46:10;;;;;;;2.57;1.70;;;;;;;;;;5055813;28;20225;-84
2022/04/08 14:48:38;;;;;;;1.63;1.53;;;;;;;;;;5035559;28;20205;-85